Time;durP1;ratioP1;P1;durP2;ratioP2;P2;SDS_P1;SDS_P2;PMS_P1;PMS_P2;Temp;Humidity;BMP_temperature;BMP_pressure;BME280_temperature;BME280_humidity;BME280_pressure;Samples;Min_cycle;Max_cycle;Signal;HPM_P1;HPM_P2
2022/05/19 00:00:21;;;;;;;3.92;3.63;;;18.80;96.70;;;;;;5005629;28;20223;-58
2022/05/19 00:02:47;;;;;;;4.28;3.97;;;18.80;96.90;;;;;;5008029;28;20190;-58
2022/05/19 00:05:13;;;;;;;4.30;4.00;;;18.80;97.10;;;;;;5010311;28;20186;-58
2022/05/19 00:07:39;;;;;;;4.47;4.07;;;18.70;97.40;;;;;;5010209;28;20195;-56
2022/05/19 00:10:05;;;;;;;4.60;4.20;;;18.70;97.60;;;;;;5010121;28;20185;-58
2022/05/19 00:12:31;;;;;;;4.68;4.30;;;18.50;98.00;;;;;;4999889;28;20440;-57
2022/05/19 00:14:57;;;;;;;5.40;4.63;;;18.40;98.30;;;;;;5007079;28;20189;-57
2022/05/19 00:17:24;;;;;;;4.70;4.30;;;18.40;98.70;;;;;;5010332;28;20218;-57
2022/05/19 00:19:50;;;;;;;5.00;4.60;;;18.30;98.80;;;;;;5010399;28;20214;-57
2022/05/19 00:22:16;;;;;;;4.70;4.20;;;18.30;98.90;;;;;;5010159;28;20205;-57
2022/05/19 00:24:42;;;;;;;4.33;3.90;;;18.40;99.10;;;;;;5009351;28;20197;-57
2022/05/19 00:27:07;;;;;;;4.73;4.33;;;18.30;99.20;;;;;;5009895;28;20464;-57
2022/05/19 00:29:33;;;;;;;4.83;4.20;;;18.20;99.40;;;;;;5009142;28;20269;-57
2022/05/19 00:31:59;;;;;;;5.67;4.50;;;18.20;99.50;;;;;;5007502;28;20278;-58
2022/05/19 00:34:24;;;;;;;5.17;4.80;;;18.10;99.70;;;;;;5007047;28;20187;-58
2022/05/19 00:37:02;;;;;;;4.50;4.10;;;18.10;99.90;;;;;;5008474;28;20615;-58
2022/05/19 00:39:28;;;;;;;5.20;4.70;;;18.10;99.90;;;;;;5009622;28;20211;-57
2022/05/19 00:44:40;;;;;;;4.93;4.53;;;17.80;99.90;;;;;;5006734;28;20210;-57
2022/05/19 00:47:11;;;;;;;4.60;4.20;;;17.80;99.90;;;;;;5009382;28;20212;-57
2022/05/19 00:49:40;;;;;;;4.82;4.50;;;17.70;99.90;;;;;;5009655;28;20186;-57
2022/05/19 00:52:27;;;;;;;4.63;4.10;;;17.70;99.90;;;;;;5024508;28;20182;-57
2022/05/19 00:55:25;;;;;;;5.07;4.63;;;17.70;99.90;;;;;;5014885;28;20187;-58
2022/05/19 00:58:00;;;;;;;4.80;4.40;;;17.70;99.90;;;;;;5006373;28;20218;-58
2022/05/19 01:00:26;;;;;;;4.72;4.32;;;17.60;99.90;;;;;;5009009;28;20245;-58
2022/05/19 01:02:58;;;;;;;5.40;4.97;;;17.60;99.90;;;;;;5009770;28;20871;-57
2022/05/19 01:05:41;;;;;;;4.72;4.43;;;17.50;99.90;;;;;;5001546;28;20183;-57
2022/05/19 01:08:27;;;;;;;5.13;4.65;;;17.40;99.90;;;;;;5003323;28;20206;-57
2022/05/19 01:10:54;;;;;;;5.10;4.60;;;17.40;99.90;;;;;;5007464;28;20198;-57
2022/05/19 01:13:20;;;;;;;5.45;4.50;;;17.40;99.90;;;;;;5009841;28;20222;-58
2022/05/19 01:15:50;;;;;;;5.20;4.80;;;17.30;99.90;;;;;;5009121;28;20186;-60
2022/05/19 01:18:16;;;;;;;5.03;4.72;;;17.40;99.90;;;;;;5009250;28;20218;-59
2022/05/19 01:20:44;;;;;;;13.73;5.57;;;17.30;99.90;;;;;;5009401;28;20854;-58
2022/05/19 01:23:25;;;;;;;5.18;4.40;;;17.30;99.90;;;;;;5009613;28;20615;-57
2022/05/19 01:26:29;;;;;;;7.25;4.72;;;17.30;99.90;;;;;;5010751;28;20178;-58
2022/05/19 01:28:57;;;;;;;5.00;4.60;;;17.40;99.90;;;;;;5012686;28;20214;-58
2022/05/19 01:31:33;;;;;;;4.85;4.50;;;17.10;99.90;;;;;;5011803;28;20606;-57
2022/05/19 01:33:59;;;;;;;5.13;4.72;;;17.20;99.90;;;;;;5013422;28;20883;-58
2022/05/19 01:36:25;;;;;;;5.60;4.57;;;17.10;99.90;;;;;;5011960;28;20248;-57
2022/05/19 01:38:58;;;;;;;5.07;4.57;;;17.10;99.90;;;;;;5023271;28;20215;-56
2022/05/19 01:41:44;;;;;;;5.10;4.60;;;17.20;99.90;;;;;;5011754;28;20519;-57
2022/05/19 01:44:36;;;;;;;4.93;4.43;;;17.00;99.90;;;;;;5013364;28;20538;-57
2022/05/19 01:47:20;;;;;;;5.20;4.70;;;16.80;99.90;;;;;;5007301;28;20178;-58
2022/05/19 01:49:57;;;;;;;4.95;4.45;;;16.70;99.90;;;;;;5012565;28;20798;-59
2022/05/19 01:52:38;;;;;;;4.85;4.45;;;16.90;99.90;;;;;;5012776;28;20197;-58
2022/05/19 01:55:14;;;;;;;4.75;4.35;;;16.90;99.90;;;;;;5011823;28;20179;-57
2022/05/19 01:57:49;;;;;;;4.82;4.50;;;16.90;99.90;;;;;;5012523;28;20905;-58
2022/05/19 02:00:27;;;;;;;4.55;4.20;;;16.60;99.90;;;;;;5009772;28;20280;-58
2022/05/19 02:03:19;;;;;;;5.00;4.60;;;16.70;99.90;;;;;;5012384;28;20679;-58
2022/05/19 02:06:04;;;;;;;7.22;5.00;;;16.90;99.90;;;;;;5012224;28;20699;-57
2022/05/19 02:09:09;;;;;;;5.78;4.63;;;16.60;99.90;;;;;;5028160;28;20217;-57
2022/05/19 02:11:56;;;;;;;5.72;4.60;;;16.80;99.90;;;;;;5012124;28;20218;-57
2022/05/19 02:14:35;;;;;;;5.43;4.93;;;16.70;99.90;;;;;;5006145;28;20175;-57
2022/05/19 02:17:05;;;;;;;4.53;4.22;;;16.60;99.90;;;;;;5007200;28;20197;-57
2022/05/19 02:19:37;;;;;;;4.65;4.35;;;16.50;99.90;;;;;;5008206;28;20249;-57
2022/05/19 02:22:05;;;;;;;4.93;4.43;;;16.50;99.90;;;;;;5010131;28;20254;-57
2022/05/19 02:24:35;;;;;;;4.80;4.40;;;16.50;99.90;;;;;;5012015;28;20175;-57
2022/05/19 02:27:25;;;;;;;4.38;4.07;;;16.40;99.90;;;;;;5008700;28;20179;-58
2022/05/19 02:29:53;;;;;;;5.32;4.57;;;16.50;99.90;;;;;;5011391;28;20609;-57
2022/05/19 02:32:19;;;;;;;4.55;4.25;;;16.30;99.90;;;;;;5011082;28;20195;-56
2022/05/19 02:34:45;;;;;;;5.88;4.60;;;16.40;99.90;;;;;;5009204;28;20297;-57
2022/05/19 02:37:10;;;;;;;4.67;4.17;;;16.50;99.90;;;;;;5010660;28;20249;-57
2022/05/19 02:39:36;;;;;;;5.00;4.60;;;16.30;99.90;;;;;;5009810;28;20206;-57
2022/05/19 02:42:02;;;;;;;5.13;4.53;;;16.50;99.90;;;;;;5011292;28;20186;-58
2022/05/19 02:44:27;;;;;;;4.27;3.97;;;16.60;99.90;;;;;;5011208;28;20183;-57
2022/05/19 02:46:53;;;;;;;4.30;4.00;;;16.30;99.90;;;;;;5011661;28;20663;-60
2022/05/19 02:49:18;;;;;;;6.63;4.87;;;16.40;99.90;;;;;;5011776;28;20253;-58
2022/05/19 02:51:44;;;;;;;4.63;4.33;;;16.30;99.90;;;;;;5009698;28;20214;-58
2022/05/19 02:54:10;;;;;;;5.13;4.50;;;16.30;99.90;;;;;;5010971;28;20228;-58
2022/05/19 02:56:36;;;;;;;4.60;4.20;;;16.20;99.90;;;;;;5011448;28;20584;-58
2022/05/19 02:59:03;;;;;;;4.90;4.50;;;16.50;99.90;;;;;;5004746;28;20245;-58
2022/05/19 03:01:28;;;;;;;4.80;4.40;;;16.30;99.90;;;;;;5010656;28;20190;-59
2022/05/19 03:03:54;;;;;;;4.60;4.20;;;16.20;99.90;;;;;;5011161;28;20190;-58
2022/05/19 03:06:19;;;;;;;4.67;4.27;;;16.40;99.90;;;;;;5010910;28;20529;-58
2022/05/19 03:08:45;;;;;;;6.43;4.87;;;16.40;99.90;;;;;;5009438;28;20237;-59
2022/05/19 03:11:11;;;;;;;5.00;4.60;;;15.90;99.90;;;;;;5007851;28;20266;-58
2022/05/19 03:13:36;;;;;;;4.60;4.30;;;16.10;99.90;;;;;;4999238;28;20207;-57
2022/05/19 03:16:07;;;;;;;4.57;4.27;;;16.00;99.90;;;;;;5009867;28;20179;-58
2022/05/19 03:18:33;;;;;;;8.65;4.80;;;16.30;99.90;;;;;;5010904;28;20217;-59
2022/05/19 03:20:58;;;;;;;4.73;4.30;;;15.80;99.90;;;;;;5011399;28;20218;-59
2022/05/19 03:23:24;;;;;;;5.00;4.43;;;16.20;99.90;;;;;;5009591;28;20281;-58
2022/05/19 03:25:50;;;;;;;6.80;4.90;;;16.00;99.90;;;;;;5011058;28;20918;-58
2022/05/19 03:28:16;;;;;;;5.30;4.40;;;16.20;99.90;;;;;;5009506;28;20286;-58
2022/05/19 03:30:43;;;;;;;4.47;4.07;;;16.00;99.90;;;;;;5010566;28;20186;-58
2022/05/19 03:33:08;;;;;;;5.20;4.70;;;15.90;99.90;;;;;;5015710;28;20648;-58
2022/05/19 03:35:34;;;;;;;5.27;4.87;;;15.90;99.90;;;;;;5010546;28;20205;-59
2022/05/19 03:38:00;;;;;;;5.53;5.00;;;15.70;99.90;;;;;;5025313;28;20265;-59
2022/05/19 03:40:26;;;;;;;5.77;5.23;;;15.70;99.90;;;;;;5011078;28;20627;-58
2022/05/19 03:42:51;;;;;;;5.20;4.80;;;15.80;99.90;;;;;;5011151;28;20201;-58
2022/05/19 03:45:17;;;;;;;5.07;4.57;;;15.80;99.90;;;;;;5010723;28;20621;-58
2022/05/19 03:47:43;;;;;;;5.20;4.80;;;15.80;99.90;;;;;;5009889;28;20207;-58
2022/05/19 03:50:09;;;;;;;4.73;4.43;;;15.90;99.90;;;;;;5009074;28;20487;-58
2022/05/19 03:52:37;;;;;;;8.20;5.35;;;15.70;99.90;;;;;;5009352;28;20187;-58
2022/05/19 03:55:03;;;;;;;4.60;4.30;;;15.80;99.90;;;;;;5001697;28;20182;-58
2022/05/19 03:57:28;;;;;;;4.63;4.15;;;15.90;99.90;;;;;;5004543;28;20242;-58
2022/05/19 03:59:54;;;;;;;4.77;4.23;;;15.80;99.90;;;;;;5008712;28;20602;-59
2022/05/19 04:02:20;;;;;;;5.03;4.63;;;15.70;99.90;;;;;;5004465;28;20198;-59
2022/05/19 04:04:45;;;;;;;5.27;4.87;;;15.70;99.90;;;;;;5008859;28;20595;-58
2022/05/19 04:07:11;;;;;;;4.87;4.47;;;15.40;99.90;;;;;;5008305;28;20211;-59
2022/05/19 04:09:37;;;;;;;7.87;5.47;;;15.70;99.90;;;;;;5008703;28;20191;-55
2022/05/19 04:12:03;;;;;;;5.23;4.83;;;15.90;99.90;;;;;;5008205;28;20246;-55
2022/05/19 04:14:28;;;;;;;5.15;4.70;;;15.50;99.90;;;;;;5008298;28;20234;-55
2022/05/19 04:16:54;;;;;;;4.90;4.50;;;15.50;99.90;;;;;;5008179;28;20576;-55
2022/05/19 04:19:20;;;;;;;5.70;4.67;;;15.80;99.90;;;;;;5008518;28;20547;-55
2022/05/19 04:21:45;;;;;;;4.87;4.40;;;15.90;99.90;;;;;;5002011;28;20250;-56
2022/05/19 04:24:12;;;;;;;4.73;4.43;;;15.80;99.90;;;;;;5009458;28;20213;-55
2022/05/19 04:26:38;;;;;;;5.28;4.88;;;15.60;99.90;;;;;;5009352;28;20240;-55
2022/05/19 04:29:04;;;;;;;5.03;4.70;;;15.70;99.90;;;;;;5008500;28;20207;-55
2022/05/19 04:31:29;;;;;;;5.03;4.53;;;15.60;99.90;;;;;;5006310;28;20189;-56
2022/05/19 04:33:55;;;;;;;5.03;4.63;;;15.60;99.90;;;;;;5003905;28;20191;-56
2022/05/19 04:36:21;;;;;;;5.33;4.83;;;15.80;99.90;;;;;;5003969;28;20193;-56
2022/05/19 04:38:46;;;;;;;5.00;4.70;;;15.70;99.90;;;;;;5008174;28;20233;-56
2022/05/19 04:41:12;;;;;;;4.67;4.37;;;16.20;99.90;;;;;;5007327;28;20183;-57
2022/05/19 04:43:38;;;;;;;5.67;4.57;;;16.00;99.90;;;;;;5008040;28;20191;-56
2022/05/19 04:46:04;;;;;;;4.67;4.23;;;16.10;99.90;;;;;;5009092;28;20269;-56
2022/05/19 04:48:29;;;;;;;5.03;4.10;;;16.10;99.90;;;;;;5008351;28;20656;-61
2022/05/19 04:50:58;;;;;;;5.40;4.53;;;16.20;99.90;;;;;;5005966;28;20187;-56
2022/05/19 04:53:25;;;;;;;4.43;4.07;;;16.20;99.90;;;;;;5007618;28;20198;-56
2022/05/19 04:55:52;;;;;;;5.15;4.65;;;16.20;99.90;;;;;;5009191;28;20205;-55
2022/05/19 04:58:19;;;;;;;4.85;4.55;;;16.40;99.90;;;;;;5008546;28;20203;-56
2022/05/19 05:00:47;;;;;;;4.88;4.47;;;16.80;99.90;;;;;;5009715;28;20277;-54
2022/05/19 05:03:13;;;;;;;6.43;4.90;;;16.70;99.90;;;;;;5010557;28;20186;-54
2022/05/19 05:05:39;;;;;;;4.63;4.10;;;16.80;99.90;;;;;;5010479;28;20183;-53
2022/05/19 05:08:05;;;;;;;4.40;4.00;;;16.90;99.90;;;;;;5011750;28;20217;-54
2022/05/19 05:10:30;;;;;;;5.20;4.70;;;17.10;99.90;;;;;;5011518;28;20619;-54
2022/05/19 05:12:57;;;;;;;6.33;5.00;;;17.20;99.90;;;;;;5008911;28;20353;-60
2022/05/19 05:15:23;;;;;;;6.20;5.70;;;17.10;99.90;;;;;;5003132;28;20187;-67
2022/05/19 05:17:48;;;;;;;6.68;4.85;;;17.40;99.90;;;;;;5014460;28;20210;-66
2022/05/19 05:20:14;;;;;;;5.10;4.60;;;17.50;99.90;;;;;;5009458;28;20214;-66
2022/05/19 05:22:40;;;;;;;5.57;5.07;;;17.80;99.90;;;;;;5011395;28;20194;-66
2022/05/19 05:25:09;;;;;;;4.87;4.47;;;17.80;99.80;;;;;;5013256;28;20189;-67
2022/05/19 05:27:35;;;;;;;4.40;4.03;;;17.90;99.40;;;;;;5011631;28;20540;-66
2022/05/19 05:30:02;;;;;;;4.33;4.03;;;18.40;99.10;;;;;;5004183;28;20803;-63
2022/05/19 05:32:28;;;;;;;4.47;3.80;;;18.10;98.70;;;;;;5010401;28;20864;-60
2022/05/19 05:34:53;;;;;;;4.63;4.33;;;18.20;98.40;;;;;;5006761;28;20199;-67
2022/05/19 05:37:19;;;;;;;5.57;3.97;;;18.30;98.40;;;;;;5011228;28;20344;-67
2022/05/19 05:39:44;;;;;;;4.73;4.33;;;18.30;98.30;;;;;;5013908;28;20210;-67
2022/05/19 05:42:10;;;;;;;5.37;4.83;;;18.50;98.40;;;;;;5014416;28;20233;-67
2022/05/19 05:44:35;;;;;;;4.73;4.33;;;18.40;98.00;;;;;;5006549;28;20237;-67
2022/05/19 05:47:01;;;;;;;6.20;3.97;;;18.80;98.20;;;;;;5010235;28;20277;-67
2022/05/19 05:49:27;;;;;;;4.93;4.37;;;18.90;98.90;;;;;;5010750;28;20191;-62
2022/05/19 05:51:52;;;;;;;4.87;4.47;;;19.10;98.10;;;;;;5008651;28;20293;-66
2022/05/19 05:54:18;;;;;;;4.90;3.50;;;19.20;97.60;;;;;;5011059;28;20199;-68
2022/05/19 05:56:44;;;;;;;3.67;3.37;;;19.40;98.00;;;;;;5010600;28;20203;-65
2022/05/19 05:59:09;;;;;;;4.63;4.33;;;19.70;96.90;;;;;;5025941;28;20301;-62
2022/05/19 06:01:35;;;;;;;4.33;3.80;;;19.60;95.30;;;;;;5009098;28;20202;-65
2022/05/19 06:04:02;;;;;;;5.20;3.77;;;19.80;95.40;;;;;;5012518;28;20243;-63
2022/05/19 06:06:28;;;;;;;8.98;4.60;;;19.90;95.50;;;;;;5009285;28;20191;-64
2022/05/19 06:08:53;;;;;;;10.07;4.57;;;20.10;94.50;;;;;;5009215;28;20202;-64
2022/05/19 06:11:19;;;;;;;6.30;4.20;;;20.10;94.00;;;;;;5009089;28;20774;-65
2022/05/19 06:13:45;;;;;;;4.37;3.90;;;20.10;94.30;;;;;;5008265;28;20644;-63
2022/05/19 06:16:11;;;;;;;4.03;3.50;;;20.20;94.10;;;;;;5004511;28;20184;-63
2022/05/19 06:18:37;;;;;;;5.38;3.80;;;20.30;94.60;;;;;;5011891;28;20207;-69
2022/05/19 06:21:04;;;;;;;5.20;4.50;;;20.50;94.60;;;;;;5009077;28;20626;-67
2022/05/19 06:23:30;;;;;;;7.03;4.22;;;20.90;94.50;;;;;;5010849;28;20186;-66
2022/05/19 06:25:55;;;;;;;5.10;3.47;;;20.70;93.60;;;;;;5012831;28;20339;-64
2022/05/19 06:28:21;;;;;;;3.83;3.53;;;20.70;93.30;;;;;;5010707;28;20207;-61
2022/05/19 06:30:47;;;;;;;3.43;3.13;;;20.90;93.70;;;;;;5008282;28;20556;-68
2022/05/19 06:33:16;;;;;;;7.00;3.77;;;21.10;92.70;;;;;;5007910;28;20186;-69
2022/05/19 06:35:42;;;;;;;3.60;3.33;;;21.30;92.30;;;;;;5010150;28;20449;-70
2022/05/19 06:38:07;;;;;;;4.07;3.53;;;21.40;92.10;;;;;;5010358;28;20583;-71
2022/05/19 06:40:34;;;;;;;4.27;3.37;;;21.60;92.10;;;;;;5003189;28;20210;-65
2022/05/19 06:43:00;;;;;;;3.83;3.50;;;21.80;91.90;;;;;;5011072;28;20179;-63
2022/05/19 06:45:28;;;;;;;5.67;4.00;;;22.10;91.90;;;;;;5009126;28;20524;-69
2022/05/19 06:47:54;;;;;;;6.17;4.40;;;22.30;91.20;;;;;;5006685;28;20503;-66
2022/05/19 06:50:21;;;;;;;4.57;4.17;;;22.60;91.00;;;;;;5011130;28;20468;-64
2022/05/19 06:53:01;;;;;;;8.70;4.30;;;23.00;90.20;;;;;;5009622;28;20229;-66
2022/05/19 06:55:28;;;;;;;5.60;3.77;;;23.20;90.40;;;;;;5007599;28;20467;-62
2022/05/19 06:57:54;;;;;;;3.63;3.23;;;23.40;86.70;;;;;;5008205;28;20491;-64
2022/05/19 07:00:23;;;;;;;4.17;3.50;;;24.10;84.60;;;;;;5009838;28;20470;-62
2022/05/19 07:02:53;;;;;;;3.50;3.30;;;25.90;79.30;;;;;;5011267;28;20856;-65
2022/05/19 07:05:25;;;;;;;4.40;3.43;;;28.20;71.20;;;;;;5010095;28;20451;-64
2022/05/19 07:07:51;;;;;;;3.53;3.23;;;30.00;62.80;;;;;;5007733;28;20465;-65
2022/05/19 07:10:19;;;;;;;3.77;3.37;;;30.80;57.70;;;;;;5009493;28;20440;-60
2022/05/19 07:12:45;;;;;;;3.83;3.53;;;31.60;54.80;;;;;;5004957;28;20194;-61
2022/05/19 07:15:14;;;;;;;3.77;3.57;;;33.10;53.00;;;;;;5000639;28;20998;-65
2022/05/19 07:17:40;;;;;;;4.17;3.70;;;33.90;49.10;;;;;;5002700;28;20462;-63
2022/05/19 07:22:51;;;;;;;3.50;3.20;;;35.20;46.20;;;;;;5010062;28;20722;-63
2022/05/19 07:25:17;;;;;;;3.60;3.30;;;37.30;43.30;;;;;;5006072;28;20441;-61
2022/05/19 07:27:43;;;;;;;3.50;3.20;;;38.00;41.30;;;;;;5009502;28;20648;-66
2022/05/19 07:30:09;;;;;;;3.83;3.53;;;38.40;39.70;;;;;;5004972;28;20438;-62
2022/05/19 07:32:35;;;;;;;3.60;3.40;;;38.90;38.00;;;;;;5003213;28;20187;-65
2022/05/19 07:35:02;;;;;;;3.40;3.20;;;39.00;37.70;;;;;;5010270;28;20495;-66
2022/05/19 07:37:28;;;;;;;5.03;3.23;;;38.10;37.80;;;;;;5007522;28;20698;-64
2022/05/19 07:39:54;;;;;;;3.90;3.60;;;37.90;39.30;;;;;;5007970;28;20470;-64
2022/05/19 07:42:20;;;;;;;3.80;3.50;;;39.80;37.10;;;;;;5009122;28;20187;-62
2022/05/19 07:44:46;;;;;;;3.80;2.93;;;39.20;36.00;;;;;;5007999;28;20529;-62
2022/05/19 07:47:14;;;;;;;3.40;3.20;;;39.50;35.10;;;;;;5010815;28;20481;-63
2022/05/19 07:49:40;;;;;;;3.50;3.30;;;39.40;35.60;;;;;;5009912;28;21065;-62
2022/05/19 07:52:06;;;;;;;5.23;3.33;;;39.10;36.10;;;;;;5009880;28;20528;-71
2022/05/19 07:54:31;;;;;;;3.50;3.30;;;38.80;36.50;;;;;;5005668;28;20286;-68
2022/05/19 07:56:57;;;;;;;3.77;3.30;;;39.00;36.80;;;;;;5007245;28;20659;-71
2022/05/19 07:59:24;;;;;;;5.13;3.90;;;39.60;35.90;;;;;;5010283;28;21014;-70
2022/05/19 08:01:51;;;;;;;3.83;3.43;;;38.70;36.30;;;;;;5008640;28;20221;-68
2022/05/19 08:04:18;;;;;;;4.50;4.10;;;39.50;35.90;;;;;;5000708;28;20439;-68
2022/05/19 08:06:44;;;;;;;3.80;3.40;;;38.90;36.00;;;;;;4998267;28;20430;-66
2022/05/19 08:11:54;;;;;;;4.10;3.80;;;38.90;36.10;;;;;;5006956;28;20503;-66
2022/05/19 08:17:10;;;;;;;3.87;3.67;;;40.30;35.50;;;;;;5009520;28;20197;-62
2022/05/19 08:19:37;;;;;;;4.03;3.70;;;40.40;34.50;;;;;;5002001;28;20477;-62
2022/05/19 08:22:03;;;;;;;4.30;4.00;;;40.50;34.30;;;;;;5009252;28;20441;-63
2022/05/19 08:24:30;;;;;;;3.70;3.50;;;41.10;33.90;;;;;;5007799;28;20460;-62
2022/05/19 08:26:56;;;;;;;3.50;3.30;;;40.70;33.40;;;;;;5002152;28;21358;-62
2022/05/19 08:29:22;;;;;;;9.00;3.17;;;40.10;34.10;;;;;;5007278;28;20451;-66
2022/05/19 08:31:48;;;;;;;3.30;3.10;;;40.80;33.70;;;;;;5008302;28;20190;-67
2022/05/19 08:34:13;;;;;;;3.67;3.37;;;40.80;33.30;;;;;;5005877;28;20648;-68
2022/05/19 08:36:40;;;;;;;3.60;3.40;;;40.70;33.40;;;;;;5009546;28;20196;-68
2022/05/19 08:39:07;;;;;;;3.37;3.17;;;40.50;33.70;;;;;;5009045;28;20471;-69
2022/05/19 08:41:54;;;;;;;4.13;3.83;;;40.70;33.90;;;;;;5009572;28;20449;-69
2022/05/19 08:44:37;;;;;;;3.43;3.23;;;40.10;34.20;;;;;;5019953;28;20452;-70
2022/05/19 08:47:04;;;;;;;4.07;3.67;;;40.70;34.20;;;;;;5003915;28;20444;-69
2022/05/19 08:49:33;;;;;;;4.73;4.20;;;40.50;33.90;;;;;;5005597;28;20441;-73
2022/05/19 08:52:12;;;;;;;5.43;4.90;;;41.40;33.20;;;;;;5009625;28;20442;-72
2022/05/19 08:54:42;;;;;;;3.60;3.40;;;41.80;33.50;;;;;;5009581;28;20774;-70
2022/05/19 08:57:21;;;;;;;3.97;3.77;;;42.30;32.10;;;;;;5008979;28;20572;-71
2022/05/19 08:59:56;;;;;;;4.17;3.80;;;42.00;32.10;;;;;;5008763;28;20978;-65
2022/05/19 09:02:37;;;;;;;3.83;3.50;;;42.20;32.20;;;;;;5005651;28;20457;-65
2022/05/19 09:05:09;;;;;;;5.60;3.90;;;41.90;32.10;;;;;;5006299;28;20481;-65
2022/05/19 09:08:00;;;;;;;4.10;3.80;;;42.40;32.10;;;;;;5009550;28;20466;-66
2022/05/19 09:10:56;;;;;;;3.97;3.70;;;41.70;32.40;;;;;;5007490;28;20806;-62
2022/05/19 09:13:41;;;;;;;3.53;3.27;;;42.60;32.00;;;;;;5006237;28;20445;-64
2022/05/19 09:16:17;;;;;;;3.70;3.40;;;43.40;31.00;;;;;;5003055;28;20450;-62
2022/05/19 09:19:19;;;;;;;4.00;3.80;;;43.10;30.60;;;;;;5009753;28;20461;-65
2022/05/19 09:21:48;;;;;;;5.30;3.77;;;41.50;31.30;;;;;;5008432;28;20445;-63
2022/05/19 09:24:13;;;;;;;5.07;3.83;;;42.30;31.90;;;;;;5007455;28;20719;-62
2022/05/19 09:26:39;;;;;;;3.87;3.57;;;42.90;31.20;;;;;;5008343;28;20529;-63
2022/05/19 09:29:11;;;;;;;3.30;3.00;;;43.50;30.70;;;;;;4998207;28;20199;-63
2022/05/19 09:31:45;;;;;;;3.73;3.53;;;43.70;30.40;;;;;;5019692;28;20586;-63
2022/05/19 09:34:11;;;;;;;4.70;4.07;;;43.20;30.40;;;;;;5004527;28;20432;-63
2022/05/19 09:36:41;;;;;;;3.90;3.60;;;43.40;30.40;;;;;;5005386;28;20911;-63
2022/05/19 09:39:14;;;;;;;3.70;3.40;;;43.70;30.00;;;;;;5006969;28;20668;-66
2022/05/19 09:41:51;;;;;;;3.60;3.40;;;42.60;30.60;;;;;;5008696;28;20544;-65
2022/05/19 09:44:26;;;;;;;4.17;3.77;;;42.20;31.00;;;;;;5007151;28;20872;-65
2022/05/19 09:46:51;;;;;;;4.07;3.80;;;43.00;30.60;;;;;;5009163;28;20456;-65
2022/05/19 09:49:28;;;;;;;3.90;3.60;;;42.80;31.00;;;;;;5012494;28;20441;-70
2022/05/19 09:51:59;;;;;;;4.90;4.40;;;42.40;30.20;;;;;;5012061;28;20678;-66
2022/05/19 09:54:25;;;;;;;4.63;3.63;;;41.90;31.20;;;;;;5009035;28;20531;-69
2022/05/19 09:56:53;;;;;;;4.07;3.77;;;41.60;32.00;;;;;;5010267;28;20490;-68
2022/05/19 09:59:34;;;;;;;4.97;4.33;;;42.50;31.50;;;;;;5007383;28;20836;-61
2022/05/19 10:02:18;;;;;;;4.80;4.20;;;43.60;30.50;;;;;;5009801;28;20477;-61
2022/05/19 10:04:54;;;;;;;4.83;4.47;;;43.40;29.80;;;;;;5026461;28;20477;-60
2022/05/19 10:07:34;;;;;;;3.90;3.70;;;42.40;30.80;;;;;;5005416;28;20488;-60
2022/05/19 10:10:00;;;;;;;4.80;4.20;;;43.00;31.00;;;;;;5012339;28;20442;-61
2022/05/19 10:12:29;;;;;;;4.80;4.50;;;42.80;30.50;;;;;;5011630;28;20599;-60
2022/05/19 10:15:03;;;;;;;5.30;4.90;;;43.00;30.90;;;;;;5010322;28;20199;-60
2022/05/19 10:17:40;;;;;;;4.90;4.37;;;42.50;31.30;;;;;;5011956;28;20471;-60
2022/05/19 10:20:14;;;;;;;4.90;4.50;;;41.70;32.10;;;;;;5011985;28;20476;-61
2022/05/19 10:23:04;;;;;;;4.73;4.33;;;40.40;33.80;;;;;;5009751;28;20445;-60
2022/05/19 10:26:05;;;;;;;4.57;4.20;;;39.30;35.30;;;;;;5010049;28;20433;-60
2022/05/19 10:31:30;;;;;;;6.00;5.60;;;36.50;39.00;;;;;;5010326;28;20479;-59
2022/05/19 10:34:15;;;;;;;6.60;6.00;;;35.50;40.90;;;;;;5010123;28;20446;-60
2022/05/19 10:37:17;;;;;;;5.13;4.73;;;34.90;42.50;;;;;;5008690;28;21199;-61
2022/05/19 10:39:55;;;;;;;5.03;4.30;;;34.50;43.20;;;;;;5011709;28;20512;-60
2022/05/19 10:42:25;;;;;;;4.70;4.30;;;34.10;44.50;;;;;;5006411;28;20552;-60
2022/05/19 10:45:17;;;;;;;4.90;4.60;;;33.80;45.20;;;;;;5010274;28;21016;-60
2022/05/19 10:48:11;;;;;;;5.17;4.77;;;33.80;45.50;;;;;;5010118;28;20471;-60
2022/05/19 10:50:38;;;;;;;4.43;4.03;;;33.80;45.70;;;;;;5009643;28;20456;-60
2022/05/19 10:53:28;;;;;;;6.40;4.87;;;34.10;45.30;;;;;;5011870;28;20528;-60
2022/05/19 10:56:26;;;;;;;4.60;4.20;;;34.50;44.60;;;;;;5009900;28;20507;-60
2022/05/19 10:59:01;;;;;;;4.73;4.33;;;35.30;43.50;;;;;;4999612;28;20560;-60
2022/05/19 11:02:19;;;;;;;5.40;4.93;;;35.90;42.40;;;;;;5010704;28;20452;-60
2022/05/19 11:05:23;;;;;;;5.87;4.10;;;36.90;40.80;;;;;;4985286;28;20446;-60
2022/05/19 11:08:03;;;;;;;4.87;4.47;;;37.40;40.20;;;;;;5005400;28;20452;-61
2022/05/19 11:10:44;;;;;;;5.47;4.57;;;38.60;39.00;;;;;;5010466;28;20984;-61
2022/05/19 11:13:42;;;;;;;4.40;4.10;;;38.70;37.60;;;;;;5004688;28;20437;-68
2022/05/19 11:16:39;;;;;;;5.03;4.50;;;38.30;37.70;;;;;;5008155;28;20480;-66
2022/05/19 11:19:23;;;;;;;5.23;4.30;;;38.90;37.50;;;;;;5003732;28;20507;-66
2022/05/19 11:21:56;;;;;;;5.37;4.87;;;38.80;37.60;;;;;;5008776;28;20958;-67
2022/05/19 11:26:23;;;;;;;7.30;6.67;;;38.30;37.70;;;;;;5009190;28;20438;-73
2022/05/19 11:27:31;;;;;;;5.53;5.03;;;38.60;38.10;;;;;;5006480;28;20492;-65
2022/05/19 11:30:03;;;;;;;6.73;6.00;;;38.40;37.50;;;;;;5008384;28;20532;-64
2022/05/19 11:32:33;;;;;;;7.50;4.73;;;38.00;38.60;;;;;;5022252;28;20449;-67
2022/05/19 11:35:12;;;;;;;5.50;5.00;;;39.20;37.40;;;;;;5008543;28;20452;-65
2022/05/19 11:37:54;;;;;;;6.10;5.47;;;39.40;36.80;;;;;;5008924;28;20511;-67
2022/05/19 11:40:42;;;;;;;4.80;4.50;;;39.00;37.70;;;;;;5024676;28;20531;-67
2022/05/19 11:43:32;;;;;;;5.97;5.47;;;38.70;37.90;;;;;;5008247;28;20552;-63
2022/05/19 11:46:15;;;;;;;6.70;6.20;;;37.80;38.50;;;;;;5008849;28;20456;-63
2022/05/19 11:55:13;;;;;;;7.20;5.40;;;35.90;41.10;;;;;;5005192;28;20810;-59
2022/05/19 11:58:00;;;;;;;5.77;5.20;;;35.80;42.00;;;;;;5007266;28;20492;-59
2022/05/19 12:00:29;;;;;;;5.43;4.93;;;35.30;42.80;;;;;;5008724;28;20886;-59
2022/05/19 12:03:02;;;;;;;5.40;4.90;;;34.70;43.60;;;;;;5008866;28;20492;-65
2022/05/19 12:05:38;;;;;;;5.87;5.03;;;34.10;44.60;;;;;;5009443;28;20441;-63
2022/05/19 12:08:28;;;;;;;6.40;5.20;;;33.70;45.80;;;;;;5004962;28;20471;-64
2022/05/19 12:11:09;;;;;;;5.23;4.80;;;33.60;45.90;;;;;;5008269;28;20928;-63
2022/05/19 12:13:36;;;;;;;6.90;5.53;;;33.40;46.00;;;;;;5011163;28;20440;-62
2022/05/19 12:16:13;;;;;;;6.13;5.10;;;33.40;46.60;;;;;;5010657;28;20434;-62
2022/05/19 12:19:03;;;;;;;5.67;4.97;;;33.20;46.80;;;;;;5013795;28;20961;-62
2022/05/19 12:21:39;;;;;;;6.70;5.83;;;33.00;47.60;;;;;;5014185;28;21030;-62
2022/05/19 12:24:08;;;;;;;6.20;5.70;;;33.00;47.80;;;;;;5005025;28;20956;-67
2022/05/19 12:26:44;;;;;;;6.10;5.07;;;32.80;48.30;;;;;;5002891;28;20442;-70
2022/05/19 12:29:23;;;;;;;6.17;5.67;;;32.80;48.00;;;;;;5003981;28;20523;-72
2022/05/19 12:31:59;;;;;;;6.07;5.20;;;33.20;47.70;;;;;;5006644;28;20969;-69
2022/05/19 12:34:47;;;;;;;5.87;5.37;;;33.00;47.30;;;;;;5008905;28;20477;-69
2022/05/19 12:37:33;;;;;;;6.30;5.70;;;33.00;47.80;;;;;;5005345;28;20523;-65
2022/05/19 12:40:37;;;;;;;6.17;5.57;;;32.80;47.60;;;;;;5008160;28;20473;-66
2022/05/19 12:43:49;;;;;;;6.00;5.17;;;32.70;48.80;;;;;;5004262;28;20457;-74
2022/05/19 12:46:33;;;;;;;5.10;4.77;;;32.60;48.90;;;;;;5002816;28;20492;-73
2022/05/19 12:49:19;;;;;;;5.47;4.83;;;32.40;49.20;;;;;;5009729;28;20461;-75
2022/05/19 12:52:08;;;;;;;5.73;5.17;;;32.20;49.70;;;;;;5008461;28;20433;-71
2022/05/19 12:54:34;;;;;;;5.10;4.60;;;32.10;49.20;;;;;;5005717;28;20440;-69
2022/05/19 12:57:08;;;;;;;6.57;6.07;;;32.20;49.60;;;;;;5002772;28;21000;-68
2022/05/19 13:00:02;;;;;;;6.00;5.50;;;32.30;50.40;;;;;;5006195;28;20256;-68
2022/05/19 13:02:35;;;;;;;5.73;5.20;;;32.30;49.10;;;;;;4998466;28;20440;-68
2022/05/19 13:05:04;;;;;;;7.67;5.57;;;32.10;49.50;;;;;;5007607;28;20490;-68
2022/05/19 13:07:38;;;;;;;5.93;5.43;;;32.10;50.00;;;;;;5003216;28;20488;-60
2022/05/19 13:10:18;;;;;;;5.70;5.20;;;32.30;49.90;;;;;;5004333;28;20425;-59
2022/05/19 13:12:59;;;;;;;5.47;4.97;;;32.40;49.40;;;;;;5013943;28;20450;-60
2022/05/19 13:15:45;;;;;;;5.20;4.73;;;32.50;49.50;;;;;;5010555;28;20873;-60
2022/05/19 13:18:12;;;;;;;6.00;5.47;;;32.40;49.30;;;;;;5011622;28;20460;-60
2022/05/19 13:20:40;;;;;;;5.40;5.00;;;32.10;49.60;;;;;;5012577;28;20468;-60
2022/05/19 13:23:17;;;;;;;5.63;4.63;;;32.10;49.20;;;;;;5010292;28;20899;-60
2022/05/19 13:25:46;;;;;;;5.93;4.97;;;32.10;48.80;;;;;;5010911;28;20440;-60
2022/05/19 13:31:26;;;;;;;6.60;4.97;;;32.00;48.20;;;;;;5009157;28;20532;-65
2022/05/19 13:33:57;;;;;;;6.00;5.50;;;32.20;48.40;;;;;;5008258;28;20448;-65
2022/05/19 13:36:41;;;;;;;6.33;5.83;;;32.20;48.60;;;;;;5008769;28;20485;-65